createdAt,value
2018-07-15T20:08:42.618Z,1003.23
2018-07-15T20:10:26.674Z,1003.29
2018-07-15T20:11:41.649Z,1003.24
2018-07-15T20:12:56.120Z,1003.27
2018-07-15T20:14:11.196Z,1003.26
2018-07-15T20:15:25.971Z,1003.22
2018-07-15T20:16:40.245Z,1003.19
2018-07-15T20:17:54.726Z,1003.2
2018-07-15T20:19:09.444Z,1003.18
2018-07-15T20:20:23.431Z,1003.16
2018-07-15T20:21:37.722Z,1003.16
2018-07-15T20:22:52.481Z,1003.15
2018-07-15T20:24:07.189Z,1003.16
2018-07-15T20:25:21.627Z,1003.14
2018-07-15T20:26:36.047Z,1003.12
2018-07-15T20:27:51.327Z,1003.13
2018-07-15T20:29:05.038Z,1003.1
2018-07-15T20:30:19.742Z,1003.1
2018-07-15T20:31:33.736Z,1003.1
2018-07-15T20:32:48.453Z,1003.13
2018-07-15T20:34:03.474Z,1003.15
2018-07-15T20:35:18.261Z,1003.14
2018-07-15T20:36:32.426Z,1003.15
2018-07-15T20:39:45.482Z,1003.13
2018-07-15T20:41:00.849Z,1003.15
2018-07-15T20:42:17.224Z,1003.11
2018-07-15T20:43:31.915Z,1003.12
2018-07-15T20:44:46.691Z,1003.1
2018-07-15T20:46:00.871Z,1003.09
2018-07-15T20:47:15.588Z,1003.09
2018-07-15T20:48:29.564Z,1003.14
2018-07-15T20:49:44.260Z,1003.15
2018-07-15T20:50:58.740Z,1003.15
2018-07-15T20:52:13.697Z,1003.14
2018-07-15T20:53:28.382Z,1003.17
2018-07-15T20:54:42.996Z,1003.19
2018-07-15T20:55:58.328Z,1003.22
2018-07-15T20:57:13.105Z,1003.2
2018-07-15T20:58:27.813Z,1003.22
2018-07-15T20:59:42.815Z,1003.21
2018-07-15T21:00:57.619Z,1003.19
2018-07-15T21:02:12.880Z,1003.21
2018-07-15T21:03:28.317Z,1003.24
2018-07-15T21:04:42.765Z,1003.2
2018-07-15T21:05:57.513Z,1003.13
2018-07-15T21:07:12.493Z,1003.16
2018-07-15T21:08:27.494Z,1003.12
2018-07-15T21:09:42.183Z,1003.13
2018-07-15T21:10:57.240Z,1003.1
2018-07-15T21:12:11.788Z,1003.12
2018-07-15T21:13:26.236Z,1003.13
2018-07-15T21:14:41.416Z,1003.15
2018-07-15T21:15:56.126Z,1003.18
2018-07-15T21:17:10.588Z,1003.16
2018-07-15T21:18:25.312Z,1003.23
2018-07-15T21:19:39.746Z,1003.18
2018-07-15T21:20:54.660Z,1003.15
2018-07-15T21:22:08.848Z,1003.15
2018-07-15T21:23:23.276Z,1003.18
2018-07-15T21:24:50.247Z,1003.14
2018-07-15T21:26:04.774Z,1003.13
2018-07-15T21:27:19.476Z,1003.1
2018-07-15T21:28:34.193Z,1003.1
2018-07-15T21:29:48.998Z,1003.07
2018-07-15T21:31:03.249Z,1003.07
2018-07-15T21:32:17.507Z,1003.09
2018-07-15T21:33:31.710Z,1003.04
2018-07-15T21:34:46.394Z,1003.07
2018-07-15T21:36:01.269Z,1003.04
2018-07-15T21:37:15.997Z,1003.05
2018-07-15T21:38:30.728Z,1003.06
2018-07-15T21:39:45.207Z,1003.03
2018-07-15T21:40:59.703Z,1002.98
2018-07-15T21:42:13.646Z,1002.99
2018-07-15T21:43:28.354Z,1002.97
2018-07-15T21:44:43.608Z,1002.95
2018-07-15T21:45:57.824Z,1002.93
2018-07-15T21:47:21.785Z,1002.94
2018-07-15T21:48:36.701Z,1002.93
2018-07-15T21:49:50.631Z,1002.92
2018-07-15T21:51:10.539Z,1003
2018-07-15T21:52:25.799Z,1003.03
2018-07-15T21:53:40.538Z,1003.06
2018-07-15T21:54:54.474Z,1003.06
2018-07-15T21:56:09.461Z,1003.09
2018-07-15T21:57:24.112Z,1003.13
2018-07-15T21:58:38.987Z,1003.16
2018-07-15T21:59:53.781Z,1003.18
2018-07-15T22:01:08.543Z,1003.15
2018-07-15T22:02:22.744Z,1003.17
2018-07-15T22:03:37.630Z,1003.18
2018-07-15T22:04:52.052Z,1003.21
2018-07-15T22:06:07.064Z,1003.21
2018-07-15T22:07:21.512Z,1003.2
2018-07-15T22:08:35.439Z,1003.24
2018-07-15T22:09:50.600Z,1003.24
2018-07-15T22:11:05.421Z,1003.27
2018-07-15T22:12:20.750Z,1003.28
2018-07-15T22:13:35.390Z,1003.31
2018-07-15T22:14:49.585Z,1003.31
2018-07-15T22:16:03.776Z,1003.31
2018-07-15T22:17:18.420Z,1003.31
2018-07-15T22:18:33.178Z,1003.3
2018-07-15T22:19:48.016Z,1003.33
2018-07-15T22:21:02.283Z,1003.25
2018-07-15T22:22:16.809Z,1003.28
2018-07-15T22:23:30.993Z,1003.28
2018-07-15T22:24:46.851Z,1003.26
2018-07-15T22:26:01.743Z,1003.28
2018-07-15T22:27:16.461Z,1003.29
2018-07-15T22:28:31.168Z,1003.26
2018-07-15T22:29:45.900Z,1003.29
2018-07-15T22:31:00.749Z,1003.25
2018-07-15T22:32:16.039Z,1003.3
2018-07-15T22:33:30.796Z,1003.3
2018-07-15T22:34:51.522Z,1003.29
2018-07-15T22:36:05.799Z,1003.29
2018-07-15T22:37:20.553Z,1003.28
2018-07-15T22:38:35.257Z,1003.33
2018-07-15T22:39:49.911Z,1003.29
2018-07-15T22:41:04.327Z,1003.31
2018-07-15T22:42:18.800Z,1003.28
2018-07-15T22:43:33.558Z,1003.27
2018-07-15T22:44:47.998Z,1003.24
2018-07-15T22:46:02.690Z,1003.26
2018-07-15T22:47:17.411Z,1003.29
2018-07-15T22:48:32.343Z,1003.29
2018-07-15T22:49:46.294Z,1003.25
2018-07-15T22:51:00.884Z,1003.29
2018-07-15T22:52:15.316Z,1003.3
2018-07-15T22:53:30.259Z,1003.35
2018-07-15T22:54:44.430Z,1003.34
2018-07-15T22:55:59.190Z,1003.36
2018-07-15T22:57:14.222Z,1003.28
2018-07-15T22:58:28.398Z,1003.33
2018-07-15T22:59:42.587Z,1003.32
2018-07-15T23:00:57.021Z,1003.32
2018-07-15T23:02:12.456Z,1003.23
2018-07-15T23:03:27.172Z,1003.26
2018-07-15T23:04:41.865Z,1003.25
2018-07-15T23:05:56.302Z,1003.27
2018-07-15T23:07:11.021Z,1003.3
2018-07-15T23:08:26.278Z,1003.3
2018-07-15T23:09:40.199Z,1003.34
2018-07-15T23:10:54.648Z,1003.34
2018-07-15T23:12:09.070Z,1003.33
2018-07-15T23:13:23.765Z,1003.37
2018-07-15T23:14:38.248Z,1003.37
2018-07-15T23:15:52.948Z,1003.35
2018-07-15T23:17:06.873Z,1003.39
2018-07-15T23:18:20.851Z,1003.44
2018-07-15T23:19:35.555Z,1003.48
2018-07-15T23:20:50.280Z,1003.46
2018-07-15T23:22:04.966Z,1003.48
2018-07-15T23:23:19.409Z,1003.52
2018-07-15T23:24:34.656Z,1003.57
2018-07-15T23:25:49.335Z,1003.54
2018-07-15T23:27:04.060Z,1003.61
2018-07-15T23:28:18.474Z,1003.59
2018-07-15T23:29:32.930Z,1003.6
2018-07-15T23:30:47.118Z,1003.6
2018-07-15T23:32:01.856Z,1003.61
2018-07-15T23:33:16.569Z,1003.59
2018-07-15T23:34:30.604Z,1003.56
2018-07-15T23:35:45.267Z,1003.53
2018-07-15T23:37:00.214Z,1003.5
2018-07-15T23:38:14.724Z,1003.5
2018-07-15T23:39:29.429Z,1003.48
2018-07-15T23:40:43.983Z,1003.5
2018-07-15T23:41:58.161Z,1003.45
2018-07-15T23:43:12.613Z,1003.5
2018-07-15T23:44:26.564Z,1003.5
2018-07-15T23:45:41.293Z,1003.54
2018-07-15T23:46:55.444Z,1003.53
2018-07-15T23:48:09.631Z,1003.54
2018-07-15T23:49:24.071Z,1003.54
2018-07-15T23:50:38.965Z,1003.56
2018-07-15T23:51:53.409Z,1003.59
2018-07-15T23:53:07.422Z,1003.58
2018-07-15T23:54:21.602Z,1003.62
2018-07-15T23:55:36.046Z,1003.61
2018-07-15T23:56:50.471Z,1003.59
2018-07-15T23:58:05.298Z,1003.6
2018-07-15T23:59:19.185Z,1003.59
